createdAt,value
2019-03-08T00:01:48.310Z,101635.95
2019-03-08T00:04:18.581Z,101629.67
2019-03-08T00:06:49.790Z,101627.33
2019-03-08T00:09:20.548Z,101645.52
2019-03-08T00:11:51.793Z,101632.20
2019-03-08T00:14:22.943Z,101624.12
2019-03-08T00:16:54.391Z,101632.77
2019-03-08T00:19:26.026Z,101638.77
2019-03-08T00:21:56.375Z,101634.80
2019-03-08T00:24:28.117Z,101627.18
2019-03-08T00:26:58.543Z,101626.64
2019-03-08T00:29:29.068Z,101623.03
2019-03-08T00:32:02.173Z,101620.94
2019-03-08T00:34:33.403Z,101624.33
2019-03-08T00:37:04.857Z,101613.36
2019-03-08T00:39:36.106Z,101605.13
2019-03-08T00:42:07.034Z,101618.20
2019-03-08T00:44:38.176Z,101601.12
2019-03-08T00:47:09.321Z,101594.92
2019-03-08T00:49:39.954Z,101581.00
2019-03-08T00:52:12.527Z,101579.34
2019-03-08T00:54:43.052Z,101581.57
2019-03-08T00:57:13.783Z,101579.08
2019-03-08T00:59:44.410Z,101593.00
2019-03-08T01:02:15.660Z,101591.12
2019-03-08T01:04:47.001Z,101599.56
2019-03-08T01:07:17.634Z,101590.55
2019-03-08T01:09:48.365Z,101584.45
2019-03-08T01:12:19.202Z,101582.57
2019-03-08T01:14:49.938Z,101591.12
2019-03-08T01:17:21.588Z,101580.08
2019-03-08T01:19:51.897Z,101581.02
2019-03-08T01:22:22.576Z,101576.91
2019-03-08T01:24:53.274Z,101572.44
2019-03-08T01:27:24.010Z,101568.19
2019-03-08T01:29:54.948Z,101568.91
2019-03-08T01:32:25.880Z,101568.05
2019-03-08T01:34:56.739Z,101560.61
2019-03-08T01:37:29.189Z,101557.91
2019-03-08T01:39:59.717Z,101557.76
2019-03-08T01:42:31.851Z,101548.59
2019-03-08T01:45:03.744Z,101553.54
2019-03-08T01:47:34.163Z,101554.91
2019-03-08T01:50:06.677Z,101542.69
2019-03-08T01:52:37.231Z,101537.45
2019-03-08T01:55:08.038Z,101545.83
2019-03-08T01:57:38.590Z,101535.47
2019-03-08T02:00:13.301Z,101538.36
2019-03-08T02:02:43.577Z,101532.52
2019-03-08T02:05:14.308Z,101532.23
2019-03-08T02:07:45.453Z,101532.98
2019-03-08T02:10:16.610Z,101533.41
2019-03-08T02:12:47.534Z,101511.92
2019-03-08T02:15:21.000Z,101516.61
2019-03-08T02:17:51.557Z,101530.24
2019-03-08T02:20:23.401Z,101539.84
2019-03-08T02:22:53.979Z,101538.69
2019-03-08T02:25:24.493Z,101551.67
2019-03-08T02:27:55.202Z,101557.41
2019-03-08T02:30:26.146Z,101558.98
2019-03-08T02:32:56.975Z,101568.12
2019-03-08T02:35:28.309Z,101563.75
2019-03-08T02:37:59.877Z,101572.13
2019-03-08T02:40:35.522Z,101558.77
2019-03-08T02:43:14.762Z,101546.72
2019-03-08T02:45:45.792Z,101535.57
2019-03-08T02:48:17.242Z,101542.42
2019-03-08T02:50:47.605Z,101532.75
2019-03-08T02:53:18.819Z,101524.38
2019-03-08T02:55:49.543Z,101506.55
2019-03-08T02:58:20.171Z,101512.39
2019-03-08T03:00:51.724Z,101516.61
2019-03-08T03:03:22.457Z,101523.47
2019-03-08T03:05:53.802Z,101520.79
2019-03-08T03:08:25.439Z,101524.61
2019-03-08T03:10:56.394Z,101522.59
2019-03-08T03:13:29.278Z,101514.06
2019-03-08T03:15:59.909Z,101508.52
2019-03-08T03:18:30.638Z,101512.20
2019-03-08T03:21:01.374Z,101519.50
2019-03-08T03:23:32.615Z,101511.42
2019-03-08T03:26:03.237Z,101517.12
2019-03-08T03:28:35.212Z,101520.12
2019-03-08T03:31:05.867Z,101524.84
2019-03-08T03:33:37.491Z,101525.14
2019-03-08T03:36:08.223Z,101521.95
2019-03-08T03:38:39.558Z,101516.83
2019-03-08T03:41:09.996Z,101509.97
2019-03-08T03:43:41.547Z,101503.31
2019-03-08T03:46:12.348Z,101507.87
2019-03-08T03:48:43.115Z,101503.67
2019-03-08T03:51:14.252Z,101493.20
2019-03-08T03:53:47.910Z,101507.58
2019-03-08T03:56:18.484Z,101499.34
2019-03-08T03:58:50.756Z,101497.31
2019-03-08T04:01:27.831Z,101490.61
2019-03-08T04:03:58.803Z,101494.33
2019-03-08T04:06:30.091Z,101485.83
2019-03-08T04:09:01.362Z,101484.00
2019-03-08T04:11:31.873Z,101489.14
2019-03-08T04:14:02.620Z,101508.35
2019-03-08T04:16:35.608Z,101501.13
2019-03-08T04:19:06.344Z,101501.13
2019-03-08T04:21:36.967Z,101501.70
2019-03-08T04:24:07.703Z,101495.44
2019-03-08T04:26:39.104Z,101495.34
2019-03-08T04:29:09.579Z,101493.61
2019-03-08T04:31:40.312Z,101481.82
2019-03-08T04:34:10.835Z,101489.55
2019-03-08T04:36:41.466Z,101488.84
2019-03-08T04:39:12.098Z,101487.82
2019-03-08T04:41:42.724Z,101480.69
2019-03-08T04:44:13.458Z,101493.80
2019-03-08T04:46:44.296Z,101495.89
2019-03-08T04:49:16.030Z,101491.22
2019-03-08T04:51:49.549Z,101483.59
2019-03-08T04:54:20.208Z,101487.53
2019-03-08T04:56:52.155Z,101479.11
2019-03-08T04:59:22.978Z,101483.77
2019-03-08T05:01:53.486Z,101490.01
2019-03-08T05:04:24.235Z,101475.66
2019-03-08T05:06:54.865Z,101479.78
2019-03-08T05:09:28.155Z,101465.19
2019-03-08T05:11:58.461Z,101459.18
2019-03-08T05:14:30.342Z,101456.71
2019-03-08T05:17:03.354Z,101459.66
2019-03-08T05:19:34.470Z,101458.84
2019-03-08T05:22:06.118Z,101463.72
2019-03-08T05:24:36.819Z,101452.02
2019-03-08T05:27:08.270Z,101461.08
2019-03-08T05:29:38.728Z,101471.36
2019-03-08T05:32:09.561Z,101458.69
2019-03-08T05:34:40.704Z,101469.59
2019-03-08T05:37:11.432Z,101470.34
2019-03-08T05:39:42.068Z,101471.72
2019-03-08T05:42:12.574Z,101470.34
2019-03-08T05:44:44.350Z,101465.70
2019-03-08T05:47:14.792Z,101465.32
2019-03-08T05:49:45.500Z,101467.05
2019-03-08T05:52:17.068Z,101474.28
2019-03-08T05:54:47.392Z,101482.68
2019-03-08T05:57:18.281Z,101477.77
2019-03-08T05:59:48.978Z,101481.50
2019-03-08T06:02:19.887Z,101483.39
2019-03-08T06:04:51.950Z,101478.25
2019-03-08T06:07:22.378Z,101473.06
2019-03-08T06:09:53.109Z,101476.88
2019-03-08T06:12:23.584Z,101472.75
2019-03-08T06:14:54.571Z,101483.73
2019-03-08T06:17:26.742Z,101489.91
2019-03-08T06:19:57.470Z,101471.33
2019-03-08T06:22:30.863Z,101472.19
2019-03-08T06:25:01.408Z,101478.00
2019-03-08T06:27:32.639Z,101473.14
2019-03-08T06:30:03.253Z,101475.26
2019-03-08T06:32:33.932Z,101468.92
2019-03-08T06:35:06.080Z,101468.00
2019-03-08T06:37:37.717Z,101473.40
2019-03-08T06:40:13.265Z,101480.73
2019-03-08T06:42:45.428Z,101468.04
2019-03-08T06:45:17.106Z,101462.22
2019-03-08T06:47:47.815Z,101452.02
2019-03-08T06:50:18.548Z,101442.00
2019-03-08T06:52:49.176Z,101455.62
2019-03-08T06:55:20.430Z,101463.20
2019-03-08T06:57:59.312Z,101463.78
2019-03-08T07:00:43.320Z,101446.97
2019-03-08T07:03:14.921Z,101447.33
2019-03-08T07:05:45.503Z,101445.88
2019-03-08T07:08:16.203Z,101440.63
2019-03-08T07:10:46.628Z,101432.66
2019-03-08T07:13:18.384Z,101416.98
2019-03-08T07:15:49.004Z,101420.25
2019-03-08T07:18:19.644Z,101405.47
2019-03-08T07:20:52.117Z,101385.27
2019-03-08T07:23:28.097Z,101387.16
2019-03-08T07:26:10.884Z,101384.81
2019-03-08T07:28:59.986Z,101368.50
2019-03-08T07:31:35.097Z,101359.44
2019-03-08T07:34:11.090Z,101364.31
2019-03-08T07:36:59.776Z,101369.31
2019-03-08T07:39:38.314Z,101365.17
2019-03-08T07:42:26.657Z,101372.45
2019-03-08T07:45:15.105Z,101368.70
2019-03-08T07:48:03.861Z,101369.10
2019-03-08T07:50:36.129Z,101364.47
2019-03-08T07:53:11.347Z,101380.84
2019-03-08T07:55:46.551Z,101374.09
2019-03-08T07:58:26.026Z,101377.29
2019-03-08T08:01:16.433Z,101377.49
2019-03-08T08:03:54.845Z,101399.44
2019-03-08T08:06:45.044Z,101384.56
2019-03-08T08:09:22.933Z,101394.80
2019-03-08T08:12:12.014Z,101405.09
2019-03-08T08:14:54.601Z,101411.95
2019-03-08T08:17:29.644Z,101364.59
2019-03-08T08:20:15.918Z,101400.68
2019-03-08T08:22:56.688Z,101388.91
2019-03-08T08:25:36.539Z,101385.34
2019-03-08T08:28:06.390Z,101385.19
2019-03-08T08:30:48.149Z,101387.20
2019-03-08T08:33:26.461Z,101363.03
2019-03-08T08:35:58.833Z,101370.85
2019-03-08T08:38:36.815Z,101358.59
2019-03-08T08:41:09.104Z,101357.52
2019-03-08T08:43:59.803Z,101365.96
2019-03-08T08:46:42.084Z,101337.59
2019-03-08T08:49:29.530Z,101373.06
2019-03-08T08:52:05.283Z,101340.32
2019-03-08T08:54:44.207Z,101340.65
2019-03-08T08:57:22.211Z,101321.22
2019-03-08T08:59:56.941Z,101314.89
2019-03-08T09:02:45.220Z,101304.43
2019-03-08T09:05:20.639Z,101292.45
2019-03-08T09:07:52.888Z,101296.48
2019-03-08T09:10:38.162Z,101293.86
2019-03-08T09:13:12.746Z,101288.94
2019-03-08T09:15:57.852Z,101300.45
2019-03-08T09:18:46.598Z,101322.88
2019-03-08T09:21:24.507Z,101295.97
2019-03-08T09:24:09.937Z,101293.06
2019-03-08T09:26:49.642Z,101302.61
2019-03-08T09:29:22.280Z,101289.61
2019-03-08T09:32:10.345Z,101285.34
2019-03-08T09:34:46.659Z,101302.70
2019-03-08T09:37:18.979Z,101290.41
2019-03-08T09:40:03.001Z,101274.89
2019-03-08T09:42:48.399Z,101262.25
2019-03-08T09:45:20.867Z,101251.52
2019-03-08T09:48:08.394Z,101251.36
2019-03-08T09:50:46.300Z,101250.92
2019-03-08T09:53:18.660Z,101245.42
2019-03-08T09:55:53.786Z,101208.56
2019-03-08T09:58:41.870Z,101244.67
2019-03-08T10:01:23.239Z,101226.77
2019-03-08T10:03:57.665Z,101257.70
2019-03-08T10:06:41.936Z,101222.82
2019-03-08T10:09:15.075Z,101252.00
2019-03-08T10:11:52.680Z,101218.49
2019-03-08T10:14:26.374Z,101221.29
2019-03-08T10:16:58.922Z,101257.97
2019-03-08T10:19:40.554Z,101210.37
2019-03-08T10:22:29.102Z,101224.02
2019-03-08T10:25:07.397Z,101234.16
2019-03-08T10:27:45.304Z,101217.73
2019-03-08T10:30:29.436Z,101241.08
2019-03-08T10:33:18.585Z,101238.57
2019-03-08T10:36:07.436Z,101206.43
2019-03-08T10:38:42.797Z,101225.35
2019-03-08T10:41:16.817Z,101192.55
2019-03-08T10:44:08.678Z,101271.73
2019-03-08T10:46:41.377Z,101218.66
2019-03-08T10:49:31.616Z,101246.78
2019-03-08T10:52:17.403Z,101248.98
2019-03-08T10:54:43.429Z,101214.53
2019-03-08T10:57:18.045Z,101202.30
2019-03-08T11:00:05.390Z,101232.66
2019-03-08T11:02:43.369Z,101208.00
2019-03-08T11:05:35.914Z,101225.80
2019-03-08T11:08:11.764Z,101232.08
2019-03-08T11:10:49.869Z,101204.00
2019-03-08T11:13:43.192Z,101257.00
2019-03-08T11:16:17.725Z,101198.62
2019-03-08T11:18:50.744Z,101205.19
2019-03-08T11:21:28.951Z,101191.77
2019-03-08T11:24:10.650Z,101226.05
2019-03-08T11:26:49.563Z,101217.65
2019-03-08T11:29:38.418Z,101197.98
2019-03-08T11:32:23.112Z,101235.62
2019-03-08T11:34:57.186Z,101209.92
2019-03-08T11:37:32.533Z,101223.16
2019-03-08T11:40:04.360Z,101225.44
2019-03-08T11:42:40.872Z,101227.30
2019-03-08T11:45:26.971Z,101227.08
2019-03-08T11:48:00.227Z,101197.41
2019-03-08T11:50:48.726Z,101188.20
2019-03-08T11:53:21.746Z,101162.86
2019-03-08T11:55:56.816Z,101184.59
2019-03-08T11:58:31.841Z,101185.13
2019-03-08T12:01:13.404Z,101197.49
2019-03-08T12:03:55.030Z,101211.03
2019-03-08T12:06:29.537Z,101272.24
2019-03-08T12:09:11.634Z,101176.71
2019-03-08T12:11:46.399Z,101168.83
2019-03-08T12:14:18.738Z,101192.89
2019-03-08T12:16:51.104Z,101191.27
2019-03-08T12:19:39.230Z,101164.94
2019-03-08T12:22:11.869Z,101160.69
2019-03-08T12:25:01.210Z,101183.47
2019-03-08T12:27:40.021Z,101173.75
2019-03-08T12:30:28.257Z,101180.52
2019-03-08T12:33:00.424Z,101177.19
2019-03-08T12:35:36.299Z,101155.87
2019-03-08T12:38:17.657Z,101141.61
2019-03-08T12:41:01.800Z,101189.90
2019-03-08T12:43:34.579Z,101151.70
2019-03-08T12:46:16.881Z,101163.14
2019-03-08T12:48:53.420Z,101161.36
2019-03-08T12:51:41.803Z,101135.93
2019-03-08T12:54:25.941Z,101128.02
2019-03-08T12:57:14.302Z,101135.62
2019-03-08T12:59:48.841Z,101105.56
2019-03-08T13:02:29.556Z,101112.98
2019-03-08T13:05:05.230Z,101119.66
2019-03-08T13:07:46.755Z,101116.73
2019-03-08T13:10:17.450Z,101111.52
2019-03-08T13:12:49.514Z,101097.34
2019-03-08T13:15:22.400Z,101102.30
2019-03-08T13:17:53.739Z,101124.53
2019-03-08T13:20:25.287Z,101098.31
2019-03-08T13:22:57.456Z,101084.07
2019-03-08T13:25:28.549Z,101093.38
2019-03-08T13:28:00.969Z,101076.09
2019-03-08T13:30:31.501Z,101084.23
2019-03-08T13:33:02.229Z,101073.27
2019-03-08T13:35:33.576Z,101080.08
2019-03-08T13:38:06.907Z,101079.06
2019-03-08T13:40:37.810Z,101079.22
2019-03-08T13:43:08.744Z,101075.16
2019-03-08T13:45:39.584Z,101065.97
2019-03-08T13:48:10.279Z,101075.75
2019-03-08T13:50:42.885Z,101075.13
2019-03-08T13:53:13.417Z,101082.45
2019-03-08T13:55:44.545Z,101090.21
2019-03-08T13:58:17.340Z,101097.97
2019-03-08T14:00:48.681Z,101088.97
2019-03-08T14:03:19.415Z,101085.37
2019-03-08T14:05:51.476Z,101097.86
2019-03-08T14:08:22.416Z,101052.93
2019-03-08T14:10:53.170Z,101077.69
2019-03-08T14:13:24.702Z,101082.85
2019-03-08T14:15:55.740Z,101054.92
2019-03-08T14:18:26.166Z,101062.13
2019-03-08T14:20:57.719Z,101102.88
2019-03-08T14:23:28.249Z,101057.87
2019-03-08T14:25:59.077Z,101042.58
2019-03-08T14:28:29.707Z,101047.81
2019-03-08T14:31:18.673Z,101044.70
2019-03-08T14:33:49.297Z,101038.88
2019-03-08T14:36:20.148Z,101029.26
2019-03-08T14:38:51.683Z,101049.36
2019-03-08T14:41:23.751Z,101022.67
2019-03-08T14:44:08.511Z,101017.52
2019-03-08T14:46:40.850Z,101009.14
2019-03-08T14:49:11.718Z,100996.11
2019-03-08T14:51:48.278Z,101006.97
2019-03-08T14:54:18.093Z,100988.12
2019-03-08T14:56:49.750Z,100988.33
2019-03-08T14:59:20.216Z,101025.56
2019-03-08T15:01:51.523Z,101010.59
2019-03-08T15:04:22.163Z,101030.49
2019-03-08T15:06:53.905Z,101043.98
2019-03-08T15:09:29.114Z,101018.47
2019-03-08T15:11:59.534Z,101035.80
2019-03-08T15:14:30.175Z,101046.40
2019-03-08T15:17:09.092Z,101044.89
2019-03-08T15:19:40.126Z,101052.09
2019-03-08T15:22:10.287Z,101075.58
2019-03-08T15:24:40.912Z,101059.61
2019-03-08T15:27:12.570Z,101061.31
2019-03-08T15:29:43.093Z,101059.53
2019-03-08T15:32:15.366Z,101062.86
2019-03-08T15:34:46.013Z,101057.42
2019-03-08T15:37:17.346Z,101060.99
2019-03-08T15:39:47.977Z,101068.86
2019-03-08T15:42:19.144Z,101047.64
2019-03-08T15:44:51.653Z,101068.02
2019-03-08T15:47:23.982Z,101078.45
2019-03-08T15:49:55.710Z,101068.70
2019-03-08T15:52:28.399Z,101079.97
2019-03-08T15:54:59.053Z,101104.52
2019-03-08T15:57:29.863Z,101081.81
2019-03-08T16:00:02.123Z,101067.66
2019-03-08T16:02:32.743Z,101061.77
2019-03-08T16:05:03.937Z,101061.91
2019-03-08T16:07:37.710Z,101074.22
2019-03-08T16:10:13.859Z,101134.30
2019-03-08T16:12:45.931Z,101097.25
2019-03-08T16:15:16.448Z,101095.77
2019-03-08T16:17:47.206Z,101121.69
2019-03-08T16:20:21.752Z,101097.28
2019-03-08T16:22:52.136Z,101101.34
2019-03-08T16:25:22.761Z,101112.27
2019-03-08T16:27:53.632Z,101115.81
2019-03-08T16:30:34.263Z,101106.08
2019-03-08T16:33:30.401Z,101104.67
2019-03-08T16:36:19.043Z,101109.48
2019-03-08T16:38:54.896Z,101122.65
2019-03-08T16:41:30.039Z,101109.48
2019-03-08T16:44:02.291Z,101116.33
2019-03-08T16:46:47.122Z,101113.44
2019-03-08T16:49:28.443Z,101123.38
2019-03-08T16:52:18.149Z,101121.55
2019-03-08T16:55:01.854Z,101119.73
2019-03-08T16:57:43.441Z,101127.55
2019-03-08T17:00:15.718Z,101125.05
2019-03-08T17:02:48.293Z,101113.39
2019-03-08T17:05:36.396Z,101115.85
2019-03-08T17:08:14.637Z,101122.17
2019-03-08T17:10:49.569Z,101110.29
2019-03-08T17:13:21.944Z,101100.73
2019-03-08T17:16:10.698Z,101116.56
2019-03-08T17:18:43.483Z,101099.78
2019-03-08T17:21:32.845Z,101094.86
2019-03-08T17:24:11.252Z,101099.98
2019-03-08T17:26:50.187Z,101096.56
2019-03-08T17:29:36.740Z,101113.97
2019-03-08T17:32:10.896Z,101120.16
2019-03-08T17:34:59.443Z,101102.20
2019-03-08T17:37:44.002Z,101100.91
2019-03-08T17:40:32.343Z,101111.07
2019-03-08T17:43:13.446Z,101135.16
2019-03-08T17:45:46.513Z,101102.76
2019-03-08T17:48:37.549Z,101117.78
2019-03-08T17:51:10.298Z,101122.06
2019-03-08T17:54:00.286Z,101107.41
2019-03-08T17:56:35.270Z,101104.95
2019-03-08T17:59:09.958Z,101112.05
2019-03-08T18:01:44.862Z,101120.92
2019-03-08T18:04:19.793Z,101109.75
2019-03-08T18:07:01.078Z,101109.31
2019-03-08T18:09:42.669Z,101111.88
2019-03-08T18:12:18.565Z,101105.77
2019-03-08T18:14:56.861Z,101098.56
2019-03-08T18:17:38.190Z,101110.33
2019-03-08T18:20:11.327Z,101105.84
2019-03-08T18:23:00.767Z,101119.91
2019-03-08T18:25:32.933Z,101124.13
2019-03-08T18:28:21.082Z,101110.02
2019-03-08T18:30:53.862Z,101106.33
2019-03-08T18:33:32.051Z,101099.23
2019-03-08T18:36:19.383Z,101110.43
2019-03-08T18:38:55.104Z,101128.53
2019-03-08T18:41:36.412Z,101117.40
2019-03-08T18:44:11.795Z,101107.98
2019-03-08T18:46:59.590Z,101105.78
2019-03-08T18:49:37.955Z,101123.38
2019-03-08T18:52:19.795Z,101111.22
2019-03-08T18:54:52.684Z,101110.83
2019-03-08T18:57:28.116Z,101105.12
2019-03-08T19:00:00.334Z,101105.12
2019-03-08T19:02:41.693Z,101111.05
2019-03-08T19:05:16.593Z,101106.64
2019-03-08T19:07:48.453Z,101123.41
2019-03-08T19:10:36.898Z,101122.31
2019-03-08T19:13:22.367Z,101114.92
2019-03-08T19:16:03.813Z,101108.44
2019-03-08T19:18:40.388Z,101111.87
2019-03-08T19:21:12.605Z,101104.89
2019-03-08T19:24:00.577Z,101114.06
2019-03-08T19:26:46.420Z,101114.67
2019-03-08T19:29:35.379Z,101120.22
2019-03-08T19:32:16.049Z,101121.36
2019-03-08T19:34:49.012Z,101122.86
2019-03-08T19:37:23.655Z,101117.59
2019-03-08T19:40:02.520Z,101119.41
2019-03-08T19:42:50.825Z,101132.09
2019-03-08T19:45:39.118Z,101143.91
2019-03-08T19:48:17.170Z,101129.09
2019-03-08T19:51:05.955Z,101135.09
2019-03-08T19:53:53.355Z,101123.72
2019-03-08T19:56:25.430Z,101129.13
2019-03-08T19:58:57.581Z,101142.39
2019-03-08T20:01:46.019Z,101127.05
2019-03-08T20:04:23.926Z,101123.02
2019-03-08T20:07:02.440Z,101160.84
2019-03-08T20:09:34.544Z,101127.69
2019-03-08T20:12:12.406Z,101120.22
2019-03-08T20:14:45.004Z,101110.61
2019-03-08T20:17:20.128Z,101106.91
2019-03-08T20:19:52.384Z,101109.67
2019-03-08T20:22:25.372Z,101108.65
2019-03-08T20:25:06.896Z,101093.34
2019-03-08T20:27:39.233Z,101116.67
2019-03-08T20:30:25.262Z,101106.19
2019-03-08T20:33:00.039Z,101096.85
2019-03-08T20:35:36.508Z,101114.52
2019-03-08T20:38:15.243Z,101108.25
2019-03-08T20:40:54.158Z,101104.69
2019-03-08T20:43:26.783Z,101099.95
2019-03-08T20:46:04.525Z,101094.59
2019-03-08T20:48:35.470Z,101091.49
2019-03-08T20:51:06.089Z,101099.80
2019-03-08T20:53:37.204Z,101089.72
2019-03-08T20:56:08.484Z,101106.52
2019-03-08T20:58:39.112Z,101122.62
2019-03-08T21:01:10.875Z,101118.11
2019-03-08T21:03:41.599Z,101111.36
2019-03-08T21:06:12.682Z,101116.42
2019-03-08T21:08:43.168Z,101115.75
2019-03-08T21:11:15.025Z,101122.81
2019-03-08T21:13:45.128Z,101108.78
2019-03-08T21:16:16.291Z,101124.72
2019-03-08T21:18:47.933Z,101123.00
2019-03-08T21:21:18.164Z,101128.33
2019-03-08T21:23:48.686Z,101131.70
2019-03-08T21:26:19.317Z,101125.20
2019-03-08T21:28:50.252Z,101135.08
2019-03-08T21:31:21.806Z,101131.64
2019-03-08T21:33:52.570Z,101119.19
2019-03-08T21:36:24.397Z,101130.50
2019-03-08T21:38:55.340Z,101125.25
2019-03-08T21:41:26.933Z,101109.55
2019-03-08T21:43:58.206Z,101116.28
2019-03-08T21:46:28.656Z,101113.38
2019-03-08T21:49:02.156Z,101098.16
2019-03-08T21:51:32.900Z,101104.22
2019-03-08T21:54:04.365Z,101094.53
2019-03-08T21:56:35.951Z,101109.94
2019-03-08T21:59:07.031Z,101111.85
2019-03-08T22:01:38.276Z,101109.10
2019-03-08T22:04:10.343Z,101084.73
2019-03-08T22:06:40.782Z,101082.27
2019-03-08T22:09:21.550Z,101088.47
2019-03-08T22:11:52.473Z,101066.00
2019-03-08T22:14:24.741Z,101080.50
2019-03-08T22:16:55.266Z,101080.22
2019-03-08T22:19:25.792Z,101076.73
2019-03-08T22:21:56.317Z,101058.89
2019-03-08T22:24:28.662Z,101072.59
2019-03-08T22:26:59.306Z,101074.96
2019-03-08T22:29:31.179Z,101083.98
2019-03-08T22:32:01.810Z,101095.59
2019-03-08T22:34:32.441Z,101097.17
2019-03-08T22:37:05.017Z,101085.88
2019-03-08T22:39:37.181Z,101084.59
2019-03-08T22:42:07.404Z,101088.68
2019-03-08T22:44:38.487Z,101072.41
2019-03-08T22:47:08.893Z,101076.67
2019-03-08T22:49:40.212Z,101069.23
2019-03-08T22:52:10.845Z,101059.43
2019-03-08T22:54:41.372Z,101079.52
2019-03-08T22:57:12.308Z,101071.31
2019-03-08T22:59:42.940Z,101091.53
2019-03-08T23:02:13.377Z,101082.19
2019-03-08T23:04:43.807Z,101084.76
2019-03-08T23:07:17.924Z,101060.08
2019-03-08T23:09:47.704Z,101065.05
2019-03-08T23:12:18.136Z,101055.38
2019-03-08T23:14:48.765Z,101065.05
2019-03-08T23:17:20.049Z,101056.23
2019-03-08T23:19:52.650Z,101053.14
2019-03-08T23:22:23.230Z,101049.42
2019-03-08T23:24:53.983Z,101044.09
2019-03-08T23:27:25.942Z,101054.95
2019-03-08T23:30:00.555Z,101056.16
2019-03-08T23:32:32.402Z,101056.16
2019-03-08T23:35:02.607Z,101048.02
2019-03-08T23:37:33.255Z,101037.51
2019-03-08T23:40:04.185Z,101040.25
2019-03-08T23:42:34.407Z,101044.11
2019-03-08T23:45:06.688Z,101042.73
2019-03-08T23:47:37.817Z,101028.29
2019-03-08T23:50:09.773Z,101042.40
2019-03-08T23:52:40.301Z,101045.56
2019-03-08T23:55:11.441Z,101047.80
2019-03-08T23:57:42.876Z,101059.36
